Time;durP1;ratioP1;P1;durP2;ratioP2;P2;SDS_P1;SDS_P2;PMS_P1;PMS_P2;Temp;Humidity;BMP_temperature;BMP_pressure;BME280_temperature;BME280_humidity;BME280_pressure;Samples;Min_cycle;Max_cycle;Signal;HPM_P1;HPM_P2
2022/03/22 00:00:46;;;;;;;17.30;8.02;;;;;;;;;;5024228;28;20063;-83
2022/03/22 00:03:14;;;;;;;17.20;7.70;;;;;;;;;;5030422;28;20095;-87
2022/03/22 00:05:44;;;;;;;17.02;7.38;;;;;;;;;;5029012;28;20041;-88
2022/03/22 00:08:12;;;;;;;14.48;7.95;;;;;;;;;;5020312;28;20037;-87
2022/03/22 00:10:40;;;;;;;16.00;7.70;;;;;;;;;;5040009;28;20132;-87
2022/03/22 00:13:08;;;;;;;16.55;8.15;;;;;;;;;;5024664;28;20033;-87
2022/03/22 00:15:37;;;;;;;14.75;7.95;;;;;;;;;;5041303;28;20128;-87
2022/03/22 00:18:24;;;;;;;18.08;7.78;;;;;;;;;;5032081;28;20057;-88
2022/03/22 00:20:52;;;;;;;13.57;7.30;;;;;;;;;;5034090;28;20095;-88
2022/03/22 00:23:21;;;;;;;17.05;7.60;;;;;;;;;;5034996;28;20045;-90
2022/03/22 00:25:48;;;;;;;18.17;8.00;;;;;;;;;;5053044;28;20048;-89
2022/03/22 00:28:15;;;;;;;15.50;8.20;;;;;;;;;;5040732;28;20047;-89
2022/03/22 00:30:44;;;;;;;15.57;7.88;;;;;;;;;;5034792;28;20478;-90
2022/03/22 00:33:11;;;;;;;13.65;7.45;;;;;;;;;;5017453;28;20128;-90
2022/03/22 00:35:41;;;;;;;15.52;7.70;;;;;;;;;;5045542;28;20029;-90
2022/03/22 00:38:12;;;;;;;18.52;7.32;;;;;;;;;;5068184;28;20037;-91
2022/03/22 00:40:41;;;;;;;14.65;7.70;;;;;;;;;;5046486;28;20042;-90
2022/03/22 00:43:10;;;;;;;20.45;8.07;;;;;;;;;;5032060;28;20514;-89
2022/03/22 00:45:38;;;;;;;16.08;7.20;;;;;;;;;;5053476;28;20103;-89
2022/03/22 00:48:08;;;;;;;16.20;8.20;;;;;;;;;;5041902;28;20100;-89
2022/03/22 00:50:38;;;;;;;17.40;7.93;;;;;;;;;;5037947;28;20029;-90
2022/03/22 00:53:08;;;;;;;14.02;6.93;;;;;;;;;;5045424;28;20049;-89
2022/03/22 00:55:37;;;;;;;15.50;7.93;;;;;;;;;;5043056;28;20533;-90
2022/03/22 00:58:05;;;;;;;14.73;8.05;;;;;;;;;;5034008;28;20044;-89
2022/03/22 01:00:34;;;;;;;12.30;6.78;;;;;;;;;;5013247;28;20396;-90
2022/03/22 01:03:05;;;;;;;14.77;7.57;;;;;;;;;;5052656;28;20056;-89
2022/03/22 01:05:35;;;;;;;16.50;8.07;;;;;;;;;;5038654;28;20042;-90
2022/03/22 01:08:06;;;;;;;15.88;7.80;;;;;;;;;;5042320;28;20054;-89
2022/03/22 01:10:39;;;;;;;14.55;7.78;;;;;;;;;;5024077;28;20034;-89
2022/03/22 01:13:08;;;;;;;15.18;7.60;;;;;;;;;;5050016;28;20153;-89
2022/03/22 01:15:37;;;;;;;17.23;7.72;;;;;;;;;;5045700;28;20033;-89
2022/03/22 01:18:07;;;;;;;15.80;7.43;;;;;;;;;;5050547;28;20048;-89
2022/03/22 01:20:41;;;;;;;15.35;8.65;;;;;;;;;;5055835;28;20154;-89
2022/03/22 01:23:10;;;;;;;12.80;7.55;;;;;;;;;;5042545;28;20538;-89
2022/03/22 01:25:39;;;;;;;15.00;7.82;;;;;;;;;;5037967;28;20140;-89
2022/03/22 01:28:09;;;;;;;17.27;7.10;;;;;;;;;;5032009;28;20396;-89
2022/03/22 01:30:38;;;;;;;13.93;6.82;;;;;;;;;;5047262;28;20486;-89
2022/03/22 01:33:06;;;;;;;14.20;7.45;;;;;;;;;;5031335;28;20045;-89
2022/03/22 01:35:35;;;;;;;13.80;7.60;;;;;;;;;;5028434;28;20379;-89
2022/03/22 01:38:03;;;;;;;15.25;7.32;;;;;;;;;;5024323;28;20060;-89
2022/03/22 01:40:31;;;;;;;16.50;7.53;;;;;;;;;;5031844;28;20045;-89
2022/03/22 01:42:59;;;;;;;15.82;7.97;;;;;;;;;;5044033;28;20472;-89
2022/03/22 01:45:28;;;;;;;15.27;7.30;;;;;;;;;;5043443;28;20102;-89
2022/03/22 01:48:00;;;;;;;16.88;8.48;;;;;;;;;;5046431;28;20406;-89
2022/03/22 01:50:29;;;;;;;12.60;6.82;;;;;;;;;;5055460;28;20048;-89
2022/03/22 01:52:59;;;;;;;16.80;7.95;;;;;;;;;;5050529;28;20040;-89
2022/03/22 01:55:28;;;;;;;13.18;7.28;;;;;;;;;;5052281;28;20361;-89
2022/03/22 01:57:58;;;;;;;17.40;7.45;;;;;;;;;;5044014;28;20062;-89
2022/03/22 02:00:26;;;;;;;18.35;7.43;;;;;;;;;;5045920;28;20073;-89
2022/03/22 02:05:57;;;;;;;16.13;7.35;;;;;;;;;;5049893;28;20041;-89
2022/03/22 02:08:28;;;;;;;14.85;7.63;;;;;;;;;;5031844;28;20045;-89
2022/03/22 02:11:00;;;;;;;15.02;7.93;;;;;;;;;;5042522;28;20043;-89
2022/03/22 02:13:31;;;;;;;16.52;7.88;;;;;;;;;;5025270;28;20040;-89
2022/03/22 02:16:03;;;;;;;14.23;7.88;;;;;;;;;;5045188;28;20095;-89
2022/03/22 02:18:31;;;;;;;14.40;7.75;;;;;;;;;;5056609;28;20055;-89
2022/03/22 02:21:01;;;;;;;15.35;8.05;;;;;;;;;;5031206;28;20041;-89
2022/03/22 02:23:49;;;;;;;14.60;8.07;;;;;;;;;;5034007;28;20041;-89
2022/03/22 02:26:19;;;;;;;14.25;7.20;;;;;;;;;;5048632;28;20044;-89
2022/03/22 02:28:56;;;;;;;16.85;8.07;;;;;;;;;;5038354;28;20071;-89
2022/03/22 02:31:26;;;;;;;15.65;7.80;;;;;;;;;;5044578;28;20784;-89
2022/03/22 02:33:55;;;;;;;15.23;7.75;;;;;;;;;;5043625;28;20049;-89
2022/03/22 02:36:24;;;;;;;15.00;7.95;;;;;;;;;;5027464;28;20450;-89
2022/03/22 02:38:53;;;;;;;15.25;8.38;;;;;;;;;;5023015;28;20143;-89
2022/03/22 02:41:27;;;;;;;14.73;7.60;;;;;;;;;;5035122;28;20037;-89
2022/03/22 02:43:54;;;;;;;18.98;8.18;;;;;;;;;;5042435;28;20847;-89
2022/03/22 02:46:22;;;;;;;14.80;8.23;;;;;;;;;;5049077;28;20095;-89
2022/03/22 02:48:50;;;;;;;14.45;7.57;;;;;;;;;;5045284;28;20041;-89
2022/03/22 02:51:17;;;;;;;17.27;7.93;;;;;;;;;;5021794;28;20345;-89
2022/03/22 02:53:46;;;;;;;14.85;8.32;;;;;;;;;;5048743;28;20055;-89
2022/03/22 02:56:14;;;;;;;16.55;7.90;;;;;;;;;;5085751;28;20029;-89
2022/03/22 02:58:41;;;;;;;16.27;7.80;;;;;;;;;;5048926;28;20041;-89
2022/03/22 03:01:10;;;;;;;17.05;7.78;;;;;;;;;;5044939;28;20037;-89
2022/03/22 03:03:37;;;;;;;16.80;7.88;;;;;;;;;;5011293;28;20047;-89
2022/03/22 03:06:06;;;;;;;15.57;7.75;;;;;;;;;;5033312;28;20132;-89
2022/03/22 03:08:34;;;;;;;13.35;7.68;;;;;;;;;;5049746;28;20044;-89
2022/03/22 03:11:02;;;;;;;16.38;7.95;;;;;;;;;;5020951;28;20049;-89
2022/03/22 03:14:38;;;;;;;16.27;7.63;;;;;;;;;;5013978;28;20372;-89
2022/03/22 03:16:18;;;;;;;13.20;7.40;;;;;;;;;;5038709;28;20056;-89
2022/03/22 03:18:46;;;;;;;17.25;7.70;;;;;;;;;;5056259;28;20402;-89
2022/03/22 03:21:14;;;;;;;16.38;8.63;;;;;;;;;;5030828;28;20033;-89
2022/03/22 03:23:42;;;;;;;14.05;7.65;;;;;;;;;;5044186;28;20052;-89
2022/03/22 03:26:10;;;;;;;17.75;8.65;;;;;;;;;;5053851;28;20491;-88
2022/03/22 03:28:38;;;;;;;18.20;7.75;;;;;;;;;;5007343;28;20041;-89
2022/03/22 03:31:06;;;;;;;16.52;8.10;;;;;;;;;;5045688;28;20119;-89
2022/03/22 03:33:34;;;;;;;14.40;8.10;;;;;;;;;;5057909;28;20044;-89
2022/03/22 03:36:03;;;;;;;16.92;8.15;;;;;;;;;;5052128;28;20441;-89
2022/03/22 03:38:30;;;;;;;16.70;7.90;;;;;;;;;;5055023;28;20051;-89
2022/03/22 03:43:44;;;;;;;;;;;;;;;;;;5052551;28;20044;-89
2022/03/22 03:48:59;;;;;;;19.98;8.45;;;;;;;;;;5051898;28;20138;-89
2022/03/22 03:51:28;;;;;;;14.65;7.85;;;;;;;;;;5045055;28;20502;-89
2022/03/22 03:53:57;;;;;;;15.07;8.00;;;;;;;;;;5025507;28;20042;-89
2022/03/22 03:56:29;;;;;;;15.15;8.05;;;;;;;;;;5039196;28;20107;-89
2022/03/22 03:58:57;;;;;;;16.60;7.90;;;;;;;;;;5029912;28;20095;-89
2022/03/22 04:01:25;;;;;;;14.13;7.20;;;;;;;;;;5040264;28;20037;-89
2022/03/22 04:03:52;;;;;;;16.25;7.95;;;;;;;;;;5014860;28;20128;-89
2022/03/22 04:06:20;;;;;;;15.95;8.00;;;;;;;;;;5022914;28;20071;-89
2022/03/22 04:08:50;;;;;;;14.57;7.43;;;;;;;;;;5034750;28;20052;-80
2022/03/22 04:11:18;;;;;;;15.85;8.27;;;;;;;;;;5039126;28;20447;-80
2022/03/22 04:13:46;;;;;;;16.08;7.53;;;;;;;;;;4990093;28;20044;-80
2022/03/22 04:16:14;;;;;;;20.80;8.20;;;;;;;;;;5038683;28;20099;-80
2022/03/22 04:18:42;;;;;;;17.75;8.60;;;;;;;;;;5017738;28;20076;-80
2022/03/22 04:21:11;;;;;;;19.23;8.25;;;;;;;;;;5038556;28;20490;-80
2022/03/22 04:23:58;;;;;;;13.88;7.72;;;;;;;;;;5023104;28;20037;-80
2022/03/22 04:26:45;;;;;;;15.93;7.88;;;;;;;;;;5045093;28;20037;-88
2022/03/22 04:34:47;;;;;;;19.60;7.97;;;;;;;;;;5048908;28;20053;-88
2022/03/22 04:37:16;;;;;;;13.65;8.25;;;;;;;;;;5051559;28;20064;-88
2022/03/22 04:39:45;;;;;;;17.77;7.78;;;;;;;;;;5025461;28;20575;-88
2022/03/22 04:42:14;;;;;;;15.98;8.32;;;;;;;;;;5034645;28;20048;-88
2022/03/22 04:44:42;;;;;;;14.43;7.55;;;;;;;;;;5034820;28;20461;-88
2022/03/22 04:47:10;;;;;;;14.73;7.50;;;;;;;;;;5014168;28;20064;-88
2022/03/22 04:49:38;;;;;;;17.73;8.23;;;;;;;;;;5026625;28;20043;-88
2022/03/22 04:57:38;;;;;;;;;;;;;;;;;;5035789;28;20044;-89
2022/03/22 05:00:07;;;;;;;16.05;7.50;;;;;;;;;;5036865;28;19952;-89
2022/03/22 05:02:34;;;;;;;18.50;8.13;;;;;;;;;;5023028;28;20127;-89
2022/03/22 05:05:02;;;;;;;16.83;8.50;;;;;;;;;;5031984;28;20463;-89
2022/03/22 05:07:30;;;;;;;15.27;7.43;;;;;;;;;;5037833;28;20067;-89
2022/03/22 05:09:58;;;;;;;13.95;7.38;;;;;;;;;;5037618;28;20045;-89
2022/03/22 05:12:26;;;;;;;17.83;8.40;;;;;;;;;;5057225;28;20550;-89
2022/03/22 05:14:54;;;;;;;14.60;7.90;;;;;;;;;;5045919;28;20044;-89
2022/03/22 05:17:23;;;;;;;17.25;8.65;;;;;;;;;;5046204;28;20049;-89
2022/03/22 05:19:51;;;;;;;15.63;7.50;;;;;;;;;;5042612;28;20132;-89
2022/03/22 05:22:19;;;;;;;16.58;7.90;;;;;;;;;;5037052;28;20107;-89
2022/03/22 05:24:46;;;;;;;16.42;7.82;;;;;;;;;;5021440;28;20041;-89
2022/03/22 05:27:15;;;;;;;15.85;7.82;;;;;;;;;;5035920;28;20045;-89
2022/03/22 05:29:42;;;;;;;16.17;7.88;;;;;;;;;;5035806;28;20399;-89
2022/03/22 05:32:10;;;;;;;17.58;7.97;;;;;;;;;;5040681;28;20052;-89
2022/03/22 05:34:39;;;;;;;15.20;8.13;;;;;;;;;;5044321;28;20132;-89
2022/03/22 05:37:07;;;;;;;20.70;8.60;;;;;;;;;;5054965;28;20535;-80
2022/03/22 05:39:35;;;;;;;18.08;8.52;;;;;;;;;;5026205;28;20049;-80
2022/03/22 05:42:04;;;;;;;15.32;7.95;;;;;;;;;;5036981;28;20033;-86
2022/03/22 05:44:31;;;;;;;14.75;7.70;;;;;;;;;;5048075;28;20050;-86
2022/03/22 05:46:59;;;;;;;20.55;7.80;;;;;;;;;;5043479;28;20087;-87
2022/03/22 05:49:27;;;;;;;17.73;7.90;;;;;;;;;;5017463;28;20041;-87
2022/03/22 05:51:56;;;;;;;17.30;8.25;;;;;;;;;;5012657;28;20069;-87
2022/03/22 05:54:23;;;;;;;15.77;8.05;;;;;;;;;;5030542;28;20528;-86
2022/03/22 05:56:51;;;;;;;15.20;7.95;;;;;;;;;;5050480;28;20037;-86
2022/03/22 05:59:19;;;;;;;14.80;7.57;;;;;;;;;;5047617;28;20037;-86
2022/03/22 06:01:47;;;;;;;14.73;7.65;;;;;;;;;;5039475;28;20480;-85
2022/03/22 06:04:16;;;;;;;16.13;8.07;;;;;;;;;;5022354;28;20075;-84
2022/03/22 06:06:43;;;;;;;16.85;8.65;;;;;;;;;;5040235;28;20042;-85
2022/03/22 06:09:11;;;;;;;19.10;9.32;;;;;;;;;;5038052;28;20045;-86
2022/03/22 06:11:41;;;;;;;20.02;8.25;;;;;;;;;;5002667;28;20139;-80
2022/03/22 06:14:12;;;;;;;16.27;8.35;;;;;;;;;;5024743;28;20046;-79
2022/03/22 06:16:42;;;;;;;17.65;7.63;;;;;;;;;;5021476;28;20128;-79
2022/03/22 06:19:11;;;;;;;20.08;8.88;;;;;;;;;;5027828;28;20056;-79
2022/03/22 06:21:40;;;;;;;16.25;8.15;;;;;;;;;;5038086;28;20124;-80
2022/03/22 06:24:10;;;;;;;16.60;8.38;;;;;;;;;;5027096;28;20037;-80
2022/03/22 06:26:39;;;;;;;15.57;8.43;;;;;;;;;;5019802;28;20044;-80
2022/03/22 06:29:07;;;;;;;16.95;7.85;;;;;;;;;;5038706;28;20048;-79
2022/03/22 06:31:35;;;;;;;15.20;7.90;;;;;;;;;;5039096;28;20036;-79
2022/03/22 06:34:03;;;;;;;17.38;8.38;;;;;;;;;;5038873;28;20387;-78
2022/03/22 06:36:31;;;;;;;14.90;7.82;;;;;;;;;;5025950;28;20108;-80
2022/03/22 06:38:59;;;;;;;17.00;8.70;;;;;;;;;;5028066;28;20045;-79
2022/03/22 06:41:27;;;;;;;21.30;8.25;;;;;;;;;;5039853;28;20538;-79
2022/03/22 06:43:56;;;;;;;16.75;8.07;;;;;;;;;;5037037;28;20053;-79
2022/03/22 06:46:26;;;;;;;16.77;8.77;;;;;;;;;;5048276;28;20487;-79
2022/03/22 06:48:55;;;;;;;21.95;8.77;;;;;;;;;;5043323;28;20049;-79
2022/03/22 06:51:27;;;;;;;17.95;8.45;;;;;;;;;;5046993;28;20025;-79
2022/03/22 06:53:55;;;;;;;16.25;8.45;;;;;;;;;;5028483;28;20052;-78
2022/03/22 06:56:27;;;;;;;16.58;9.07;;;;;;;;;;5041192;28;20045;-79
2022/03/22 06:58:58;;;;;;;18.48;8.23;;;;;;;;;;5021576;28;20124;-78
2022/03/22 07:01:25;;;;;;;19.73;8.32;;;;;;;;;;5025244;28;20474;-79
2022/03/22 07:03:54;;;;;;;20.83;9.27;;;;;;;;;;4999419;28;20087;-78
2022/03/22 07:06:21;;;;;;;19.08;8.90;;;;;;;;;;5024990;28;20037;-78
2022/03/22 07:08:49;;;;;;;17.35;8.88;;;;;;;;;;5039248;28;20037;-79
2022/03/22 07:14:03;;;;;;;16.75;8.43;;;;;;;;;;5030192;28;20038;-79
2022/03/22 07:16:31;;;;;;;17.92;8.38;;;;;;;;;;5040831;28;20125;-79
2022/03/22 07:18:59;;;;;;;19.05;8.52;;;;;;;;;;5035198;28;20404;-79
2022/03/22 07:21:28;;;;;;;15.35;8.68;;;;;;;;;;5035364;28;20029;-78
2022/03/22 07:23:55;;;;;;;17.75;8.98;;;;;;;;;;5041806;28;20129;-79
2022/03/22 07:26:23;;;;;;;19.58;9.43;;;;;;;;;;5019656;28;20531;-79
2022/03/22 07:28:51;;;;;;;16.48;8.93;;;;;;;;;;5036925;28;20068;-79
2022/03/22 07:31:19;;;;;;;18.60;9.25;;;;;;;;;;5029113;28;20039;-79
2022/03/22 07:33:47;;;;;;;16.73;8.80;;;;;;;;;;5035324;28;20053;-79
2022/03/22 07:36:15;;;;;;;21.13;9.40;;;;;;;;;;5035221;28;20083;-79
2022/03/22 07:39:03;;;;;;;17.27;9.32;;;;;;;;;;5035938;28;20049;-79
2022/03/22 07:41:31;;;;;;;17.80;8.63;;;;;;;;;;5018336;28;20723;-79
2022/03/22 07:44:01;;;;;;;19.38;9.63;;;;;;;;;;5019732;28;20042;-80
2022/03/22 07:46:29;;;;;;;18.70;8.90;;;;;;;;;;5028194;28;20040;-79
2022/03/22 07:52:57;;;;;;;21.75;10.77;;;;;;;;;;5020102;28;20051;-79
2022/03/22 07:54:33;;;;;;;22.77;10.18;;;;;;;;;;5033772;28;20116;-79
2022/03/22 07:57:02;;;;;;;20.88;8.98;;;;;;;;;;5036716;28;20516;-79
2022/03/22 07:59:29;;;;;;;22.17;10.75;;;;;;;;;;5033645;28;20118;-79
2022/03/22 08:01:57;;;;;;;21.77;9.77;;;;;;;;;;5038896;28;20038;-79
2022/03/22 08:04:25;;;;;;;22.15;10.15;;;;;;;;;;5032699;28;20152;-79
2022/03/22 08:06:53;;;;;;;21.05;10.50;;;;;;;;;;5035251;28;20091;-79
2022/03/22 08:09:21;;;;;;;20.70;10.30;;;;;;;;;;5015083;28;20041;-79
2022/03/22 08:11:50;;;;;;;18.83;10.07;;;;;;;;;;5034936;28;20050;-78
2022/03/22 08:14:19;;;;;;;18.42;9.75;;;;;;;;;;5024037;28;20429;-79
2022/03/22 08:16:47;;;;;;;20.00;9.52;;;;;;;;;;5036944;28;20107;-79
2022/03/22 08:19:18;;;;;;;18.15;9.45;;;;;;;;;;5036271;28;20041;-79
2022/03/22 08:21:48;;;;;;;22.00;10.32;;;;;;;;;;5033183;28;20044;-80
2022/03/22 08:24:15;;;;;;;18.50;10.43;;;;;;;;;;5019608;28;20056;-80
2022/03/22 08:26:45;;;;;;;24.27;10.15;;;;;;;;;;5024768;28;20056;-80
2022/03/22 08:29:13;;;;;;;26.35;10.95;;;;;;;;;;5034920;28;20495;-80
2022/03/22 08:31:43;;;;;;;20.80;10.13;;;;;;;;;;4988622;28;20099;-80
2022/03/22 08:34:11;;;;;;;21.63;11.52;;;;;;;;;;5035717;28;21006;-80
2022/03/22 08:36:40;;;;;;;21.33;9.95;;;;;;;;;;5038685;28;20045;-80
2022/03/22 08:39:07;;;;;;;19.05;10.48;;;;;;;;;;5012876;28;20034;-80
2022/03/22 08:41:35;;;;;;;15.88;9.55;;;;;;;;;;5022547;28;21100;-80
2022/03/22 08:44:03;;;;;;;22.20;9.95;;;;;;;;;;5034967;28;20044;-80
2022/03/22 08:46:31;;;;;;;17.98;9.80;;;;;;;;;;5035841;28;20041;-80
2022/03/22 08:48:59;;;;;;;23.23;10.63;;;;;;;;;;5022540;28;20121;-80
2022/03/22 08:51:27;;;;;;;20.77;9.90;;;;;;;;;;5019994;28;21001;-80
2022/03/22 08:53:55;;;;;;;17.13;8.90;;;;;;;;;;5036275;28;20053;-80
2022/03/22 08:56:23;;;;;;;16.67;9.70;;;;;;;;;;5017789;28;20051;-80
2022/03/22 08:58:54;;;;;;;18.75;10.45;;;;;;;;;;5034528;28;20577;-80
2022/03/22 09:01:24;;;;;;;23.02;10.52;;;;;;;;;;5021118;28;20049;-80
2022/03/22 09:06:39;;;;;;;20.13;10.00;;;;;;;;;;5004556;28;20076;-81
2022/03/22 09:09:09;;;;;;;18.55;10.45;;;;;;;;;;5038969;28;20030;-79
2022/03/22 09:11:37;;;;;;;17.75;10.43;;;;;;;;;;5020717;28;20037;-80
2022/03/22 09:14:05;;;;;;;20.15;10.50;;;;;;;;;;5013633;28;20045;-80
2022/03/22 09:16:33;;;;;;;19.95;10.90;;;;;;;;;;5025984;28;20037;-79
2022/03/22 09:19:01;;;;;;;21.17;10.80;;;;;;;;;;5032745;28;20045;-80
2022/03/22 09:21:29;;;;;;;20.25;10.02;;;;;;;;;;5016067;28;20034;-79
2022/03/22 09:23:57;;;;;;;19.55;10.82;;;;;;;;;;5037157;28;20040;-79
2022/03/22 09:26:25;;;;;;;23.15;10.88;;;;;;;;;;5022302;28;20493;-79
2022/03/22 09:28:53;;;;;;;20.02;10.00;;;;;;;;;;5034629;28;20131;-79
2022/03/22 09:31:23;;;;;;;21.35;10.25;;;;;;;;;;5019325;28;20045;-80
2022/03/22 09:33:51;;;;;;;18.08;10.57;;;;;;;;;;5039302;28;20043;-80
2022/03/22 09:36:19;;;;;;;19.58;10.43;;;;;;;;;;5038929;28;20068;-80
2022/03/22 09:38:47;;;;;;;19.08;10.88;;;;;;;;;;5020264;28;20064;-79
2022/03/22 09:41:16;;;;;;;19.27;11.02;;;;;;;;;;5023931;28;20103;-79
2022/03/22 09:43:47;;;;;;;20.30;10.95;;;;;;;;;;5023686;28;20132;-79
2022/03/22 09:46:19;;;;;;;18.20;10.25;;;;;;;;;;5037572;28;20045;-79
2022/03/22 09:48:48;;;;;;;19.08;10.25;;;;;;;;;;5040704;28;20127;-80
2022/03/22 09:54:03;;;;;;;18.50;10.38;;;;;;;;;;5029221;28;20041;-80
2022/03/22 09:56:31;;;;;;;17.63;10.45;;;;;;;;;;5024140;28;20149;-80
2022/03/22 09:59:00;;;;;;;22.65;11.07;;;;;;;;;;5034761;28;20045;-80
2022/03/22 10:01:27;;;;;;;18.45;11.35;;;;;;;;;;5037003;28;20438;-80
2022/03/22 10:04:00;;;;;;;20.00;10.65;;;;;;;;;;5041061;28;20045;-81
2022/03/22 10:06:30;;;;;;;20.67;10.63;;;;;;;;;;5010284;28;20037;-81
2022/03/22 10:09:00;;;;;;;21.27;11.10;;;;;;;;;;5039706;28;20478;-81
2022/03/22 10:11:37;;;;;;;21.27;11.52;;;;;;;;;;5039869;28;20049;-81
2022/03/22 10:14:08;;;;;;;21.25;11.50;;;;;;;;;;5027700;28;20060;-80
2022/03/22 10:16:51;;;;;;;20.02;10.95;;;;;;;;;;5035649;28;20413;-80
2022/03/22 10:19:24;;;;;;;21.77;10.95;;;;;;;;;;5019774;28;20073;-81
2022/03/22 10:21:53;;;;;;;17.55;9.55;;;;;;;;;;5038518;28;20102;-81
2022/03/22 10:24:21;;;;;;;22.85;10.85;;;;;;;;;;5037840;28;20048;-81
2022/03/22 10:26:50;;;;;;;20.85;11.30;;;;;;;;;;5022907;28;20041;-81
2022/03/22 10:29:19;;;;;;;21.55;10.30;;;;;;;;;;5029775;28;20052;-80
2022/03/22 10:31:48;;;;;;;15.82;10.18;;;;;;;;;;5038408;28;20156;-78
2022/03/22 10:34:15;;;;;;;18.58;10.15;;;;;;;;;;5023591;28;20056;-79
2022/03/22 10:36:43;;;;;;;17.45;10.85;;;;;;;;;;5022474;28;20483;-79
2022/03/22 10:39:12;;;;;;;20.67;10.73;;;;;;;;;;5037729;28;20117;-78
2022/03/22 10:41:41;;;;;;;21.08;11.00;;;;;;;;;;5037709;28;20134;-78
2022/03/22 10:44:13;;;;;;;18.00;9.48;;;;;;;;;;5036136;28;20063;-80
2022/03/22 10:46:43;;;;;;;19.65;10.52;;;;;;;;;;5025046;28;20037;-79
2022/03/22 10:49:14;;;;;;;19.50;10.68;;;;;;;;;;5028391;28;20056;-80
2022/03/22 10:51:45;;;;;;;21.52;10.52;;;;;;;;;;5043262;28;20041;-80
2022/03/22 10:54:19;;;;;;;23.05;11.07;;;;;;;;;;5025216;28;20025;-80
2022/03/22 10:56:55;;;;;;;19.08;9.82;;;;;;;;;;5041000;28;20045;-80
2022/03/22 10:59:26;;;;;;;23.10;10.85;;;;;;;;;;5039197;28;20091;-80
2022/03/22 11:01:55;;;;;;;19.38;10.75;;;;;;;;;;5036581;28;20078;-80
2022/03/22 11:04:23;;;;;;;19.73;10.13;;;;;;;;;;5036453;28;20049;-80
2022/03/22 11:07:02;;;;;;;18.13;9.43;;;;;;;;;;5038127;28;20483;-80
2022/03/22 11:09:32;;;;;;;14.77;8.82;;;;;;;;;;5040035;28;20048;-80
2022/03/22 11:12:01;;;;;;;16.65;9.93;;;;;;;;;;5020107;28;20063;-80
2022/03/22 11:14:29;;;;;;;17.70;10.13;;;;;;;;;;5037352;28;20060;-80
2022/03/22 11:16:57;;;;;;;17.83;10.30;;;;;;;;;;5021138;28;20584;-80
2022/03/22 11:19:25;;;;;;;18.33;9.82;;;;;;;;;;5007283;28;20057;-80
2022/03/22 11:21:53;;;;;;;17.50;10.75;;;;;;;;;;5027866;28;20083;-80
2022/03/22 11:24:25;;;;;;;17.02;10.10;;;;;;;;;;5016483;28;20486;-80
2022/03/22 11:26:56;;;;;;;21.90;11.35;;;;;;;;;;5024917;28;20047;-80
2022/03/22 11:29:27;;;;;;;19.98;10.07;;;;;;;;;;5038242;28;20041;-80
2022/03/22 11:34:41;;;;;;;19.08;10.00;;;;;;;;;;5037704;28;20049;-80
2022/03/22 11:37:09;;;;;;;17.30;9.90;;;;;;;;;;5019626;28;20073;-80
2022/03/22 11:42:25;;;;;;;14.52;9.40;;;;;;;;;;5034022;28;20084;-80
2022/03/22 11:45:02;;;;;;;15.25;9.52;;;;;;;;;;5029413;28;20033;-79
2022/03/22 11:47:40;;;;;;;15.63;9.07;;;;;;;;;;5035799;28;20052;-79
2022/03/22 11:50:16;;;;;;;17.70;9.73;;;;;;;;;;5037306;28;20094;-79
2022/03/22 11:52:44;;;;;;;14.52;9.20;;;;;;;;;;5017118;28;20043;-78
2022/03/22 11:55:12;;;;;;;18.00;9.95;;;;;;;;;;5035597;28;20151;-78
2022/03/22 11:57:46;;;;;;;18.55;9.40;;;;;;;;;;5035412;28;20836;-78
2022/03/22 12:00:19;;;;;;;16.13;9.82;;;;;;;;;;5037643;28;20458;-78
2022/03/22 12:02:54;;;;;;;17.77;9.73;;;;;;;;;;5032310;28;20068;-78
2022/03/22 12:05:23;;;;;;;18.33;10.13;;;;;;;;;;5038106;28;20055;-78
2022/03/22 12:07:52;;;;;;;15.60;9.25;;;;;;;;;;5036111;28;20608;-78
2022/03/22 12:10:21;;;;;;;18.88;9.25;;;;;;;;;;5036011;28;20044;-78
2022/03/22 12:12:53;;;;;;;14.82;9.35;;;;;;;;;;5033340;28;20041;-78
2022/03/22 12:15:24;;;;;;;17.73;9.90;;;;;;;;;;5023939;28;20536;-78
2022/03/22 12:17:52;;;;;;;18.95;10.07;;;;;;;;;;5015416;28;20041;-78
2022/03/22 12:20:22;;;;;;;19.98;9.32;;;;;;;;;;5019087;28;20059;-79
2022/03/22 12:22:59;;;;;;;16.83;9.77;;;;;;;;;;5035746;28;20533;-79
2022/03/22 12:25:30;;;;;;;15.68;9.05;;;;;;;;;;5032348;28;20061;-79
2022/03/22 12:28:00;;;;;;;14.63;9.07;;;;;;;;;;5018670;28;20037;-79
2022/03/22 12:30:32;;;;;;;17.70;8.93;;;;;;;;;;5024011;28;20898;-79
2022/03/22 12:33:07;;;;;;;19.13;9.00;;;;;;;;;;5034934;28;20043;-79
2022/03/22 12:35:34;;;;;;;16.67;9.23;;;;;;;;;;5033566;28;20040;-79
2022/03/22 12:38:04;;;;;;;14.60;7.60;;;;;;;;;;5033661;28;20042;-79
2022/03/22 12:40:32;;;;;;;15.30;8.27;;;;;;;;;;5032253;28;20041;-79
2022/03/22 12:43:02;;;;;;;14.18;8.35;;;;;;;;;;5000220;28;20046;-79
2022/03/22 12:45:32;;;;;;;15.02;9.00;;;;;;;;;;5018645;28;20053;-79
2022/03/22 12:48:00;;;;;;;13.13;8.23;;;;;;;;;;5017262;28;20049;-79
2022/03/22 12:50:29;;;;;;;14.40;7.72;;;;;;;;;;5039423;28;20055;-80
2022/03/22 12:52:57;;;;;;;12.40;6.60;;;;;;;;;;5028405;28;20037;-81
2022/03/22 12:55:27;;;;;;;15.27;7.97;;;;;;;;;;5039944;28;20041;-81
2022/03/22 12:57:59;;;;;;;13.93;8.13;;;;;;;;;;5034667;28;20056;-80
2022/03/22 13:00:33;;;;;;;17.05;7.82;;;;;;;;;;5048052;28;20033;-80
2022/03/22 13:03:16;;;;;;;13.07;6.80;;;;;;;;;;5044684;28;20037;-80
2022/03/22 13:05:47;;;;;;;16.45;8.23;;;;;;;;;;5045841;28;20048;-80
2022/03/22 13:08:20;;;;;;;14.95;8.38;;;;;;;;;;5046736;28;20040;-81
2022/03/22 13:16:29;;;;;;;12.90;7.97;;;;;;;;;;5039454;28;20573;-79
2022/03/22 13:18:58;;;;;;;13.82;7.90;;;;;;;;;;5016850;28;20045;-79
2022/03/22 13:21:33;;;;;;;16.65;8.52;;;;;;;;;;5019783;28;20160;-78
2022/03/22 13:24:12;;;;;;;15.85;8.88;;;;;;;;;;5040895;28;20041;-78
2022/03/22 13:26:54;;;;;;;17.05;8.43;;;;;;;;;;5034360;28;20429;-79
2022/03/22 13:29:25;;;;;;;14.10;7.65;;;;;;;;;;5042634;28;20430;-78
2022/03/22 13:31:58;;;;;;;12.77;7.43;;;;;;;;;;5032160;28;20045;-78
2022/03/22 13:34:29;;;;;;;17.17;8.10;;;;;;;;;;5020958;28;20057;-78
2022/03/22 13:37:14;;;;;;;14.93;8.35;;;;;;;;;;5044914;28;20063;-78
2022/03/22 13:39:49;;;;;;;12.85;7.35;;;;;;;;;;5046897;28;20041;-78
2022/03/22 13:42:19;;;;;;;13.40;7.88;;;;;;;;;;5042295;28;20033;-79
2022/03/22 13:44:58;;;;;;;15.15;7.88;;;;;;;;;;5027072;28;20198;-79
2022/03/22 13:47:29;;;;;;;10.77;6.43;;;;;;;;;;5022503;28;20049;-78
2022/03/22 13:50:10;;;;;;;13.00;7.15;;;;;;;;;;5020407;28;20151;-79
2022/03/22 13:52:37;;;;;;;12.35;7.18;;;;;;;;;;5019702;28;20080;-79
2022/03/22 13:55:16;;;;;;;18.10;7.20;;;;;;;;;;5036598;28;20141;-78
2022/03/22 13:57:49;;;;;;;12.65;7.00;;;;;;;;;;5021718;28;20573;-78
2022/03/22 14:00:40;;;;;;;12.32;7.15;;;;;;;;;;5015694;28;20044;-78
2022/03/22 14:03:10;;;;;;;13.80;7.40;;;;;;;;;;5027165;28;20593;-77
2022/03/22 14:05:40;;;;;;;13.55;7.05;;;;;;;;;;5003285;28;20137;-78
2022/03/22 14:08:10;;;;;;;13.48;6.38;;;;;;;;;;5033763;28;20045;-78
2022/03/22 14:10:40;;;;;;;12.55;7.18;;;;;;;;;;5023927;28;20129;-77
2022/03/22 14:13:07;;;;;;;13.50;6.68;;;;;;;;;;5034245;28;20129;-79
2022/03/22 14:15:35;;;;;;;11.45;6.70;;;;;;;;;;5018133;28;20049;-80
2022/03/22 14:18:04;;;;;;;18.23;7.28;;;;;;;;;;5037029;28;20068;-79
2022/03/22 14:20:31;;;;;;;11.25;6.57;;;;;;;;;;5037413;28;20132;-79
2022/03/22 14:22:59;;;;;;;13.43;6.60;;;;;;;;;;5037723;28;20494;-79
2022/03/22 14:25:32;;;;;;;12.57;6.70;;;;;;;;;;5038566;28;20037;-79
2022/03/22 14:27:59;;;;;;;13.10;7.93;;;;;;;;;;5023593;28;20231;-78
2022/03/22 14:30:29;;;;;;;12.15;7.18;;;;;;;;;;5035326;28;20936;-80
2022/03/22 14:33:02;;;;;;;11.75;6.13;;;;;;;;;;5036238;28;20037;-78
2022/03/22 14:35:47;;;;;;;12.52;6.50;;;;;;;;;;5039077;28;20040;-78
2022/03/22 14:38:18;;;;;;;13.02;6.40;;;;;;;;;;5031582;28;20064;-79
2022/03/22 14:40:47;;;;;;;14.75;6.90;;;;;;;;;;5028468;28;20114;-78
2022/03/22 14:43:21;;;;;;;11.63;6.38;;;;;;;;;;5039475;28;20044;-79
2022/03/22 14:45:49;;;;;;;12.00;6.53;;;;;;;;;;5035509;28;20048;-78
2022/03/22 14:48:21;;;;;;;10.15;6.03;;;;;;;;;;5021053;28;20494;-79
2022/03/22 14:50:50;;;;;;;13.63;7.30;;;;;;;;;;5018942;28;20107;-78
2022/03/22 14:58:54;;;;;;;13.48;7.93;;;;;;;;;;5052195;28;20053;-80
2022/03/22 15:01:26;;;;;;;13.88;7.25;;;;;;;;;;5044529;28;20052;-80
2022/03/22 15:03:54;;;;;;;11.93;6.90;;;;;;;;;;5026780;28;20060;-79
2022/03/22 15:06:26;;;;;;;11.48;6.57;;;;;;;;;;5010130;28;20038;-80
2022/03/22 15:08:53;;;;;;;14.05;7.40;;;;;;;;;;5021347;28;20111;-79
2022/03/22 15:11:22;;;;;;;15.07;7.03;;;;;;;;;;5035139;28;20095;-79
2022/03/22 15:13:50;;;;;;;15.00;7.50;;;;;;;;;;5018379;28;20120;-80
2022/03/22 15:16:20;;;;;;;13.60;7.43;;;;;;;;;;5034046;28;20049;-79
2022/03/22 15:18:47;;;;;;;14.18;8.57;;;;;;;;;;5026580;28;20515;-79
2022/03/22 15:21:15;;;;;;;18.10;8.60;;;;;;;;;;5040156;28;20047;-79
2022/03/22 15:23:43;;;;;;;15.02;8.43;;;;;;;;;;5039453;28;20044;-80
2022/03/22 15:26:11;;;;;;;15.15;8.52;;;;;;;;;;5041289;28;20040;-79
2022/03/22 15:28:39;;;;;;;18.33;8.80;;;;;;;;;;5038817;28;20068;-79
2022/03/22 15:31:11;;;;;;;19.00;8.63;;;;;;;;;;5027222;28;20075;-79